EDVK/KSF METAR and TAF weather

Enter ICAO airport designator
Station Type Date Time Source
EDVK METAR 2022/01/19 18:50 UTC NOAA

EDVK 191850Z 22010KT 8000 -RASN FEW008 SCT015 OVC021 02/01 Q1017


Station Type Date Time Source
EDVK Decoded METAR 2022/01/19 18:50 UTC NOAA

Kassel / Calden, Germany (EDVK) 51-24N 009-23E 283M
Jan 19, 2022 - 01:50 PM EST / 2022.01.19 1850 UTC
Wind: from the SW (220 degrees) at 12 MPH (10 KT):0
Visibility: 4 mile(s):0
Sky conditions: overcast
Weather: light rain, snow
Temperature: 35 F (2 C)
Windchill: 26 F (-3 C):1
Dew Point: 33 F (1 C)
Relative Humidity: 93%
Pressure (altimeter): 30.03 in. Hg (1017 hPa)
ob: EDVK 191850Z 22010KT 8000 -RASN FEW008 SCT015 OVC021 02/01 Q1017
cycle: 19

Station Type Date Time Source
EDVK TAF 2011/03/23 07:09 UTC NOAA

TAF COR EDVK 230655Z 2307/2321 30002KT 3500 BR SCT025 PROB30
TEMPO 2307/2309 1400 BCFG
BECMG 2307/2310 01007KT 8000

Example: see airport list